Terminal Aerodrome Forecast
Issued by NWS

Home | Current Version | Previous Version | Text Only | Print | Product List | Glossary On
Versions: 1 2 3 4 5 6 7 8 9 10 11 12 13
000
FTUS44 KCRP 271700
TAFALI
TAF
KALI 271730Z 2718/2818 09008KT P6SM SKC
     FM280800 VRB03KT 5SM BR SCT015
      TEMPO 2811/2814 2SM BR BKN015
     FM281600 17006KT P6SM SCT025=

USA.gov is the U.S. government's official web portal to all federal, state and local government web resources and services.